createdAt,value
2018-02-07T00:02:06.125Z,101529.59
2018-02-07T00:04:34.068Z,101525.61
2018-02-07T00:07:01.910Z,101522.06
2018-02-07T00:09:29.680Z,101524.34
2018-02-07T00:11:57.507Z,101520.97
2018-02-07T00:14:25.275Z,101521.13
2018-02-07T00:16:53.116Z,101523.31
2018-02-07T00:19:21.015Z,101522.34
2018-02-07T00:21:48.838Z,101527.36
2018-02-07T00:24:16.606Z,101526.52
2018-02-07T00:26:44.472Z,101522.29
2018-02-07T00:29:12.238Z,101528.45
2018-02-07T00:31:40.204Z,101526.30
2018-02-07T00:34:08.144Z,101524.70
2018-02-07T00:36:36.199Z,101524.37
2018-02-07T00:39:04.138Z,101515.34
2018-02-07T00:41:31.927Z,101506.83
2018-02-07T00:43:59.711Z,101502.52
2018-02-07T00:46:27.524Z,101500.68
2018-02-07T00:48:55.367Z,101499.11
2018-02-07T00:51:23.272Z,101508.95
2018-02-07T00:53:51.067Z,101502.58
2018-02-07T00:56:18.926Z,101509.13
2018-02-07T00:58:46.719Z,101513.31
2018-02-07T01:01:14.546Z,101515.80
2018-02-07T01:03:42.322Z,101517.28
2018-02-07T01:06:10.103Z,101510.97
2018-02-07T01:08:37.965Z,101516.70
2018-02-07T01:11:05.748Z,101515.19
2018-02-07T01:13:33.583Z,101517.05
2018-02-07T01:16:01.524Z,101505.34
2018-02-07T01:18:29.352Z,101511.89
2018-02-07T01:20:57.283Z,101513.34
2018-02-07T01:23:25.139Z,101513.55
2018-02-07T01:25:52.939Z,101511.18
2018-02-07T01:28:20.758Z,101513.59
2018-02-07T01:30:48.519Z,101508.04
2018-02-07T01:33:16.340Z,101507.74
2018-02-07T01:35:44.071Z,101502.54
2018-02-07T01:38:12.052Z,101513.22
2018-02-07T01:40:39.901Z,101515.85
2018-02-07T01:43:07.753Z,101515.89
2018-02-07T01:45:35.627Z,101512.08
2018-02-07T01:48:03.513Z,101519.31
2018-02-07T01:50:31.273Z,101512.30
2018-02-07T01:52:59.121Z,101515.91
2018-02-07T01:55:26.921Z,101512.60
2018-02-07T01:57:54.751Z,101509.13
2018-02-07T02:00:22.548Z,101508.52
2018-02-07T02:02:50.391Z,101510.68
2018-02-07T02:05:18.126Z,101514.73
2018-02-07T02:07:45.975Z,101514.52
2018-02-07T02:10:13.735Z,101521.02
2018-02-07T02:12:41.616Z,101520.34
2018-02-07T02:15:09.353Z,101525.02
2018-02-07T02:17:37.160Z,101524.73
2018-02-07T02:20:04.968Z,101524.41
2018-02-07T02:22:32.809Z,101527.06
2018-02-07T02:25:00.570Z,101519.93
2018-02-07T02:27:28.375Z,101524.61
2018-02-07T02:29:56.118Z,101521.70
2018-02-07T02:32:23.965Z,101517.36
2018-02-07T02:34:51.695Z,101522.75
2018-02-07T02:37:19.503Z,101521.41
2018-02-07T02:39:47.338Z,101515.58
2018-02-07T02:42:15.096Z,101520.01
2018-02-07T02:44:42.927Z,101520.58
2018-02-07T02:47:10.653Z,101518.45
2018-02-07T02:49:38.500Z,101522.71
2018-02-07T02:52:06.231Z,101513.66
2018-02-07T02:54:34.100Z,101509.87
2018-02-07T02:57:02.039Z,101513.07
2018-02-07T02:59:29.820Z,101514.40
2018-02-07T03:01:57.729Z,101522.87
2018-02-07T03:04:25.502Z,101524.06
2018-02-07T03:06:53.280Z,101523.20
2018-02-07T03:09:21.132Z,101519.02
2018-02-07T03:11:48.882Z,101519.80
2018-02-07T03:14:16.707Z,101523.86
2018-02-07T03:16:44.695Z,101514.67
2018-02-07T03:19:12.489Z,101523.12
2018-02-07T03:21:40.233Z,101527.59
2018-02-07T03:24:08.028Z,101529.92
2018-02-07T03:26:35.797Z,101526.00
2018-02-07T03:29:03.602Z,101525.47
2018-02-07T03:31:31.356Z,101521.50
2018-02-07T03:33:59.196Z,101517.17
2018-02-07T03:36:26.981Z,101526.10
2018-02-07T03:38:54.792Z,101523.29
2018-02-07T03:41:22.573Z,101526.06
2018-02-07T03:43:50.411Z,101527.61
2018-02-07T03:46:18.186Z,101531.22
2018-02-07T03:48:45.977Z,101532.27
2018-02-07T03:51:13.777Z,101542.48
2018-02-07T03:53:41.603Z,101540.68
2018-02-07T03:56:09.357Z,101535.04
2018-02-07T03:58:37.291Z,101539.19
2018-02-07T04:01:05.068Z,101546.52
2018-02-07T04:03:32.904Z,101540.34
2018-02-07T04:06:00.816Z,101546.96
2018-02-07T04:08:28.632Z,101541.95
2018-02-07T04:10:56.423Z,101536.50
2018-02-07T04:13:24.240Z,101537.56
2018-02-07T04:15:52.037Z,101531.99
2018-02-07T04:18:20.012Z,101533.31
2018-02-07T04:20:47.924Z,101536.52
2018-02-07T04:23:15.684Z,101542.30
2018-02-07T04:25:43.502Z,101546.45
2018-02-07T04:28:11.301Z,101540.81
2018-02-07T04:30:39.191Z,101551.42
2018-02-07T04:33:06.984Z,101555.28
2018-02-07T04:35:34.795Z,101550.58
2018-02-07T04:38:02.561Z,101545.02
2018-02-07T04:40:30.425Z,101551.28
2018-02-07T04:42:58.281Z,101549.94
2018-02-07T04:45:26.136Z,101541.81
2018-02-07T04:47:53.895Z,101552.00
2018-02-07T04:50:21.716Z,101550.99
2018-02-07T04:52:49.501Z,101550.09
2018-02-07T04:55:17.312Z,101554.12
2018-02-07T04:57:45.225Z,101562.67
2018-02-07T05:00:13.075Z,101561.98
2018-02-07T05:02:41.019Z,101559.62
2018-02-07T05:05:08.850Z,101556.48
2018-02-07T05:07:36.641Z,101555.22
2018-02-07T05:10:04.479Z,101561.68
2018-02-07T05:12:32.248Z,101565.31
2018-02-07T05:15:00.095Z,101561.34
2018-02-07T05:17:28.035Z,101566.61
2018-02-07T05:19:55.836Z,101566.81
2018-02-07T05:22:23.636Z,101563.82
2018-02-07T05:24:51.488Z,101565.03
2018-02-07T05:27:19.235Z,101565.53
2018-02-07T05:29:47.198Z,101561.33
2018-02-07T05:32:15.236Z,101565.36
2018-02-07T05:34:43.079Z,101563.86
2018-02-07T05:37:10.892Z,101567.30
2018-02-07T05:39:38.712Z,101566.23
2018-02-07T05:42:06.508Z,101571.29
2018-02-07T05:44:34.284Z,101566.02
2018-02-07T05:47:02.103Z,101563.82
2018-02-07T05:49:30.055Z,101567.96
2018-02-07T05:51:57.849Z,101570.10
2018-02-07T05:54:25.714Z,101562.39
2018-02-07T05:56:53.468Z,101558.47
2018-02-07T05:59:21.350Z,101566.59
2018-02-07T06:01:49.142Z,101565.11
2018-02-07T06:04:16.964Z,101561.15
2018-02-07T06:06:44.756Z,101560.50
2018-02-07T06:09:12.544Z,101561.40
2018-02-07T06:11:40.381Z,101560.29
2018-02-07T06:14:08.136Z,101567.60
2018-02-07T06:16:35.963Z,101565.59
2018-02-07T06:19:03.772Z,101568.68
2018-02-07T06:21:31.635Z,101580.03
2018-02-07T06:23:59.585Z,101576.52
2018-02-07T06:26:27.420Z,101590.59
2018-02-07T06:28:55.209Z,101590.36
2018-02-07T06:31:23.092Z,101594.20
2018-02-07T06:33:50.900Z,101596.16
2018-02-07T06:36:18.787Z,101604.52
2018-02-07T06:38:46.576Z,101601.52
2018-02-07T06:41:14.381Z,101611.23
2018-02-07T06:43:42.177Z,101609.10
2018-02-07T06:46:09.988Z,101611.61
2018-02-07T06:48:37.885Z,101607.67
2018-02-07T06:51:05.815Z,101613.50
2018-02-07T06:53:33.575Z,101612.04
2018-02-07T06:56:01.404Z,101612.97
2018-02-07T06:58:29.192Z,101609.76
2018-02-07T07:00:57.024Z,101616.63
2018-02-07T07:03:24.864Z,101613.73
2018-02-07T07:05:52.698Z,101617.71
2018-02-07T07:08:20.489Z,101613.27
2018-02-07T07:10:48.386Z,101619.87
2018-02-07T07:13:16.198Z,101614.81
2018-02-07T07:15:44.037Z,101608.55
2018-02-07T07:18:11.820Z,101611.03
2018-02-07T07:20:39.792Z,101613.73
2018-02-07T07:23:07.580Z,101607.65
2018-02-07T07:25:35.590Z,101609.90
2018-02-07T07:28:03.464Z,101610.21
2018-02-07T07:30:31.352Z,101608.00
2018-02-07T07:32:59.275Z,101597.48
2018-02-07T07:35:27.136Z,101602.72
2018-02-07T07:37:54.935Z,101600.41
2018-02-07T07:40:22.768Z,101602.67
2018-02-07T07:42:50.535Z,101596.06
2018-02-07T07:45:18.324Z,101601.73
2018-02-07T07:47:46.110Z,101599.31
2018-02-07T07:50:13.892Z,101593.28
2018-02-07T07:52:41.758Z,101591.64
2018-02-07T07:58:40.912Z,101595.78
2018-02-07T08:01:08.755Z,101601.29
2018-02-07T08:03:36.548Z,101594.38
2018-02-07T08:06:04.384Z,101609.30
2018-02-07T08:08:32.249Z,101613.95
2018-02-07T08:11:00.081Z,101605.92
2018-02-07T08:13:27.917Z,101611.73
2018-02-07T08:15:55.744Z,101612.81
2018-02-07T08:18:23.565Z,101615.50
2018-02-07T08:20:51.377Z,101615.84
2018-02-07T08:23:19.193Z,101617.91
2018-02-07T08:25:47.143Z,101617.97
2018-02-07T08:28:14.917Z,101616.44
2018-02-07T08:30:42.769Z,101617.94
2018-02-07T08:33:10.561Z,101626.77
2018-02-07T08:35:38.422Z,101624.62
2018-02-07T08:38:06.255Z,101627.25
2018-02-07T08:40:34.048Z,101624.66
2018-02-07T08:43:02.036Z,101635.34
2018-02-07T08:45:29.878Z,101635.68
2018-02-07T08:47:57.706Z,101642.92
2018-02-07T08:50:25.502Z,101645.97
2018-02-07T08:52:53.368Z,101649.77
2018-02-07T08:55:21.226Z,101650.30
2018-02-07T08:57:49.076Z,101649.37
2018-02-07T09:00:16.864Z,101653.14
2018-02-07T09:02:44.708Z,101657.03
2018-02-07T09:05:12.487Z,101656.22
2018-02-07T09:07:40.318Z,101656.42
2018-02-07T09:10:08.152Z,101664.07
2018-02-07T09:12:36.001Z,101663.03
2018-02-07T09:15:03.899Z,101656.84
2018-02-07T09:17:31.814Z,101656.41
2018-02-07T09:19:59.588Z,101654.09
2018-02-07T09:22:27.399Z,101653.14
2018-02-07T09:24:55.201Z,101645.05
2018-02-07T09:27:23.036Z,101650.69
2018-02-07T09:29:50.859Z,101653.92
2018-02-07T09:32:18.695Z,101654.64
2018-02-07T09:34:46.560Z,101652.20
2018-02-07T09:37:14.401Z,101649.50
2018-02-07T09:39:42.259Z,101658.30
2018-02-07T09:42:10.103Z,101654.74
2018-02-07T09:44:37.956Z,101655.30
2018-02-07T09:47:05.784Z,101651.80
2018-02-07T09:49:33.551Z,101657.64
2018-02-07T09:52:01.379Z,101658.26
2018-02-07T09:54:29.216Z,101658.19
2018-02-07T09:56:57.070Z,101656.74
2018-02-07T09:59:24.964Z,101661.11
2018-02-07T10:01:52.818Z,101659.77
2018-02-07T10:04:20.624Z,101660.31
2018-02-07T10:06:48.438Z,101660.15
2018-02-07T10:09:16.566Z,101654.52
2018-02-07T10:11:44.384Z,101660.72
2018-02-07T10:14:12.163Z,101659.09
2018-02-07T10:16:40.062Z,101656.85
2018-02-07T10:19:07.902Z,101659.89
2018-02-07T10:21:36.003Z,101658.74
2018-02-07T10:24:03.855Z,101663.19
2018-02-07T10:26:31.939Z,101659.48
2018-02-07T10:28:59.786Z,101663.43
2018-02-07T10:31:27.546Z,101666.10
2018-02-07T10:33:55.396Z,101671.30
2018-02-07T10:36:23.204Z,101670.83
2018-02-07T10:38:51.106Z,101666.67
2018-02-07T10:41:18.985Z,101666.91
2018-02-07T10:43:46.838Z,101668.53
2018-02-07T10:46:14.612Z,101670.42
2018-02-07T10:48:42.472Z,101668.77
2018-02-07T10:51:10.252Z,101664.33
2018-02-07T10:53:38.031Z,101666.14
2018-02-07T10:56:05.876Z,101666.12
2018-02-07T10:58:33.773Z,101664.09
2018-02-07T11:01:01.561Z,101661.13
2018-02-07T11:03:29.449Z,101663.73
2018-02-07T11:05:57.189Z,101658.34
2018-02-07T11:08:25.022Z,101652.82
2018-02-07T11:10:52.799Z,101660.48
2018-02-07T11:13:20.574Z,101654.60
2018-02-07T11:15:48.328Z,101654.18
2018-02-07T11:18:16.140Z,101660.68
2018-02-07T11:20:43.910Z,101653.27
2018-02-07T11:23:11.710Z,101659.53
2018-02-07T11:25:39.452Z,101661.96
2018-02-07T11:28:07.286Z,101658.62
2018-02-07T11:30:35.065Z,101670.56
2018-02-07T11:33:02.889Z,101661.92
2018-02-07T11:35:30.673Z,101667.37
2018-02-07T11:37:58.507Z,101665.23
2018-02-07T11:40:26.265Z,101666.25
2018-02-07T11:42:54.103Z,101667.58
2018-02-07T11:45:21.860Z,101660.17
2018-02-07T11:47:49.635Z,101661.79
2018-02-07T11:50:18.196Z,101658.06
2018-02-07T11:52:46.046Z,101665.50
2018-02-07T11:55:13.840Z,101656.70
2018-02-07T11:57:41.729Z,101657.41
2018-02-07T12:00:09.498Z,101658.23
2018-02-07T12:02:37.299Z,101659.19
2018-02-07T12:05:05.099Z,101657.60
2018-02-07T12:07:32.891Z,101651.61
2018-02-07T12:10:00.851Z,101653.58
2018-02-07T12:12:28.636Z,101662.72
2018-02-07T12:14:56.440Z,101661.23
2018-02-07T12:17:24.367Z,101654.03
2018-02-07T12:19:52.206Z,101653.87
2018-02-07T12:22:20.051Z,101653.06
2018-02-07T12:24:47.844Z,101646.80
2018-02-07T12:27:15.646Z,101652.95
2018-02-07T12:29:44.441Z,101651.70
2018-02-07T12:32:12.212Z,101656.47
2018-02-07T12:34:40.132Z,101659.84
2018-02-07T12:37:07.947Z,101650.23
2018-02-07T12:39:35.808Z,101656.11
2018-02-07T12:42:04.662Z,101653.91
2018-02-07T12:44:32.569Z,101645.57
2018-02-07T12:47:00.346Z,101650.16
2018-02-07T12:49:28.156Z,101652.16
2018-02-07T12:51:55.995Z,101648.89
2018-02-07T12:54:24.007Z,101653.27
2018-02-07T12:56:51.773Z,101647.54
2018-02-07T12:59:19.591Z,101641.69
2018-02-07T13:01:47.382Z,101643.37
2018-02-07T13:04:15.195Z,101638.06
2018-02-07T13:06:42.968Z,101644.81
2018-02-07T13:09:10.783Z,101641.59
2018-02-07T13:11:38.579Z,101635.81
2018-02-07T13:14:06.407Z,101634.97
2018-02-07T13:16:34.172Z,101630.17
2018-02-07T13:19:02.007Z,101629.08
2018-02-07T13:21:29.775Z,101630.02
2018-02-07T13:23:57.647Z,101630.66
2018-02-07T13:26:25.747Z,101630.42
2018-02-07T13:28:53.659Z,101625.61
2018-02-07T13:31:21.420Z,101627.73
2018-02-07T13:33:49.224Z,101634.19
2018-02-07T13:36:17.024Z,101636.42
2018-02-07T13:38:44.860Z,101628.95
2018-02-07T13:41:12.623Z,101631.65
2018-02-07T13:43:40.460Z,101630.72
2018-02-07T13:46:08.302Z,101623.41
2018-02-07T13:48:36.080Z,101628.83
2018-02-07T13:51:03.904Z,101629.02
2018-02-07T13:53:31.688Z,101627.69
2018-02-07T13:55:59.528Z,101630.05
2018-02-07T13:58:27.328Z,101629.17
2018-02-07T14:00:55.162Z,101632.45
2018-02-07T14:03:22.955Z,101635.19
2018-02-07T14:05:50.756Z,101633.58
2018-02-07T14:08:18.620Z,101637.92
2018-02-07T14:10:46.490Z,101637.94
2018-02-07T14:13:14.255Z,101632.74
2018-02-07T14:15:42.168Z,101637.28
2018-02-07T14:18:09.939Z,101640.62
2018-02-07T14:20:37.878Z,101639.11
2018-02-07T14:23:05.975Z,101635.91
2018-02-07T14:25:33.837Z,101635.70
2018-02-07T14:28:01.666Z,101635.88
2018-02-07T14:30:29.506Z,101637.71
2018-02-07T14:33:03.023Z,101641.54
2018-02-07T14:35:31.621Z,101634.97
2018-02-07T14:37:59.358Z,101628.64
2018-02-07T14:40:27.169Z,101627.31
2018-02-07T14:42:54.940Z,101629.98
2018-02-07T14:45:22.823Z,101623.83
2018-02-07T14:47:50.635Z,101615.30
2018-02-07T14:50:18.434Z,101623.66
2018-02-07T14:52:46.312Z,101624.25
2018-02-07T14:55:14.185Z,101624.36
2018-02-07T14:57:42.929Z,101634.82
2018-02-07T15:00:10.956Z,101631.48
2018-02-07T15:02:38.791Z,101634.57
2018-02-07T15:05:06.637Z,101636.39
2018-02-07T15:07:34.431Z,101635.38
2018-02-07T15:10:02.220Z,101636.17
2018-02-07T15:12:30.113Z,101635.18
2018-02-07T15:14:57.942Z,101635.13
2018-02-07T15:17:25.740Z,101633.94
2018-02-07T15:19:53.786Z,101634.44
2018-02-07T15:22:21.580Z,101635.42
2018-02-07T15:24:49.391Z,101643.80
2018-02-07T15:27:17.176Z,101646.30
2018-02-07T15:29:45.001Z,101647.19
2018-02-07T15:32:12.858Z,101641.03
2018-02-07T15:34:40.700Z,101648.25
2018-02-07T15:37:08.515Z,101651.38
2018-02-07T15:39:36.280Z,101647.45
2018-02-07T15:42:04.104Z,101649.36
2018-02-07T15:44:31.845Z,101651.23
2018-02-07T15:46:59.668Z,101648.70
2018-02-07T15:49:27.464Z,101654.83
2018-02-07T15:51:55.299Z,101658.83
2018-02-07T15:54:23.017Z,101660.64
2018-02-07T15:56:50.867Z,101660.23
2018-02-07T15:59:18.619Z,101667.07
2018-02-07T16:01:46.458Z,101667.66
2018-02-07T16:04:14.306Z,101670.46
2018-02-07T16:06:42.169Z,101672.92
2018-02-07T16:09:10.007Z,101670.35
2018-02-07T16:11:37.872Z,101675.13
2018-02-07T16:14:05.659Z,101679.34
2018-02-07T16:16:33.496Z,101685.80
2018-02-07T16:19:01.269Z,101686.16
2018-02-07T16:21:29.139Z,101684.84
2018-02-07T16:23:57.086Z,101682.77
2018-02-07T16:26:24.927Z,101684.80
2018-02-07T16:28:52.744Z,101685.75
2018-02-07T16:31:20.583Z,101688.30
2018-02-07T16:33:48.398Z,101681.20
2018-02-07T16:36:16.295Z,101687.23
2018-02-07T16:38:44.088Z,101683.38
2018-02-07T16:41:11.957Z,101677.75
2018-02-07T16:43:39.801Z,101682.84
2018-02-07T16:46:07.655Z,101675.95
2018-02-07T16:48:35.441Z,101681.22
2018-02-07T16:51:03.277Z,101685.44
2018-02-07T16:53:31.069Z,101683.88
2018-02-07T16:55:58.958Z,101699.94
2018-02-07T16:58:26.705Z,101699.73
2018-02-07T17:00:54.529Z,101696.45
2018-02-07T17:03:22.400Z,101698.99
2018-02-07T17:05:50.263Z,101700.33
2018-02-07T17:08:18.050Z,101698.67
2018-02-07T17:10:45.874Z,101696.55
2018-02-07T17:13:13.617Z,101701.95
2018-02-07T17:15:41.526Z,101703.11
2018-02-07T17:18:09.312Z,101700.48
2018-02-07T17:20:37.091Z,101703.98
2018-02-07T17:23:04.934Z,101709.75
2018-02-07T17:25:32.757Z,101712.80
2018-02-07T17:28:00.616Z,101722.97
2018-02-07T17:30:28.417Z,101713.55
2018-02-07T17:32:56.257Z,101718.48
2018-02-07T17:35:24.019Z,101724.34
2018-02-07T17:37:51.919Z,101724.53
2018-02-07T17:40:19.709Z,101727.58
2018-02-07T17:42:47.572Z,101727.45
2018-02-07T17:45:15.350Z,101727.47
2018-02-07T17:47:43.175Z,101733.33
2018-02-07T17:50:11.009Z,101732.25
2018-02-07T17:52:38.835Z,101729.54
2018-02-07T17:55:06.635Z,101735.39
2018-02-07T17:57:34.468Z,101736.01
2018-02-07T18:00:02.268Z,101741.34
2018-02-07T18:02:30.139Z,101741.62
2018-02-07T18:04:57.996Z,101746.14
2018-02-07T18:07:25.857Z,101751.95
2018-02-07T18:09:53.600Z,101752.86
2018-02-07T18:12:21.414Z,101758.47
2018-02-07T18:14:49.175Z,101756.97
2018-02-07T18:17:16.970Z,101762.06
2018-02-07T18:19:44.739Z,101760.43
2018-02-07T18:22:12.544Z,101763.45
2018-02-07T18:24:40.300Z,101767.69
2018-02-07T18:27:08.218Z,101775.42
2018-02-07T18:29:36.005Z,101775.27
2018-02-07T18:32:03.866Z,101773.03
2018-02-07T18:34:31.696Z,101774.27
2018-02-07T18:36:59.495Z,101775.92
2018-02-07T18:39:27.261Z,101781.66
2018-02-07T18:41:55.026Z,101779.33
2018-02-07T18:44:22.782Z,101787.02
2018-02-07T18:46:50.614Z,101800.06
2018-02-07T18:49:18.447Z,101801.73
2018-02-07T18:51:46.242Z,101802.02
2018-02-07T18:54:14.083Z,101800.27
2018-02-07T18:56:41.932Z,101808.97
2018-02-07T18:59:09.703Z,101819.16
2018-02-07T19:01:37.648Z,101814.09
2018-02-07T19:04:05.449Z,101813.23
2018-02-07T19:06:33.243Z,101810.17
2018-02-07T19:09:01.103Z,101816.91
2018-02-07T19:11:28.883Z,101812.33
2018-02-07T19:13:56.682Z,101817.52
2018-02-07T19:16:24.581Z,101824.41
2018-02-07T19:18:52.372Z,101828.25
2018-02-07T19:21:20.240Z,101831.06
2018-02-07T19:23:48.094Z,101832.68
2018-02-07T19:26:15.923Z,101829.03
2018-02-07T19:28:43.719Z,101833.11
2018-02-07T19:31:11.480Z,101832.66
2018-02-07T19:33:39.403Z,101829.61
2018-02-07T19:36:07.259Z,101833.44
2018-02-07T19:38:35.112Z,101837.27
2018-02-07T19:41:02.876Z,101836.19
2018-02-07T19:43:30.714Z,101837.28
2018-02-07T19:45:58.505Z,101830.01
2018-02-07T19:48:26.387Z,101838.58
2018-02-07T19:50:54.246Z,101842.38
2018-02-07T19:53:22.172Z,101841.88
2018-02-07T19:55:49.976Z,101839.07
2018-02-07T19:58:17.824Z,101836.56
2018-02-07T20:00:45.595Z,101830.88
2018-02-07T20:03:13.481Z,101834.23
2018-02-07T20:05:41.308Z,101841.79
2018-02-07T20:08:09.151Z,101839.12
2018-02-07T20:10:36.925Z,101847.63
2018-02-07T20:13:04.753Z,101843.97
2018-02-07T20:15:32.560Z,101853.32
2018-02-07T20:18:00.386Z,101845.77
2018-02-07T20:20:28.243Z,101857.37
2018-02-07T20:22:56.122Z,101850.95
2018-02-07T20:25:23.943Z,101854.47
2018-02-07T20:27:51.854Z,101855.75
2018-02-07T20:30:19.691Z,101855.19
2018-02-07T20:32:47.579Z,101859.99
2018-02-07T20:35:15.348Z,101859.11
2018-02-07T20:37:43.163Z,101857.81
2018-02-07T20:40:10.953Z,101864.88
2018-02-07T20:42:38.782Z,101865.05
2018-02-07T20:45:06.655Z,101865.80
2018-02-07T20:47:34.375Z,101872.11
2018-02-07T20:50:02.284Z,101862.04
2018-02-07T20:52:30.022Z,101862.04
2018-02-07T20:54:57.869Z,101867.82
2018-02-07T20:57:25.628Z,101866.69
2018-02-07T20:59:53.456Z,101879.14
2018-02-07T21:02:21.260Z,101882.67
2018-02-07T21:04:49.122Z,101880.98
2018-02-07T21:07:16.892Z,101880.84
2018-02-07T21:09:44.742Z,101874.70
2018-02-07T21:12:12.556Z,101884.26
2018-02-07T21:14:40.428Z,101876.91
2018-02-07T21:17:08.215Z,101879.75
2018-02-07T21:19:36.135Z,101876.55
2018-02-07T21:22:03.953Z,101881.27
2018-02-07T21:24:31.988Z,101884.02
2018-02-07T21:26:59.787Z,101881.25
2018-02-07T21:29:27.648Z,101882.38
2018-02-07T21:31:55.448Z,101876.68
2018-02-07T21:34:23.267Z,101877.13
2018-02-07T21:36:51.087Z,101876.14
2018-02-07T21:39:18.930Z,101870.69
2018-02-07T21:41:46.719Z,101869.98
2018-02-07T21:44:14.600Z,101860.91
2018-02-07T21:46:42.434Z,101862.77
2018-02-07T21:49:10.358Z,101864.97
2018-02-07T21:51:38.226Z,101867.06
2018-02-07T21:54:06.050Z,101872.77
2018-02-07T21:56:33.941Z,101866.84
2018-02-07T21:59:01.791Z,101863.11
2018-02-07T22:01:29.624Z,101869.06
2018-02-07T22:03:57.459Z,101860.13
2018-02-07T22:06:25.284Z,101871.00
2018-02-07T22:08:53.155Z,101870.77
2018-02-07T22:11:21.064Z,101872.26
2018-02-07T22:13:48.906Z,101875.21
2018-02-07T22:16:16.691Z,101883.02
2018-02-07T22:18:44.528Z,101881.55
2018-02-07T22:21:12.310Z,101884.88
2018-02-07T22:23:40.144Z,101893.45
2018-02-07T22:26:07.948Z,101882.58
2018-02-07T22:28:35.811Z,101881.73
2018-02-07T22:31:03.697Z,101882.52
2018-02-07T22:33:31.555Z,101884.30
2018-02-07T22:35:59.459Z,101887.23
2018-02-07T22:38:27.262Z,101886.22
2018-02-07T22:40:55.058Z,101882.83
2018-02-07T22:43:22.796Z,101881.02
2018-02-07T22:45:50.585Z,101878.86
2018-02-07T22:48:18.360Z,101882.77
2018-02-07T22:50:46.144Z,101881.14
2018-02-07T22:53:13.865Z,101878.34
2018-02-07T22:55:41.660Z,101883.26
2018-02-07T22:58:09.408Z,101876.30
2018-02-07T23:00:37.239Z,101879.87
2018-02-07T23:03:04.996Z,101883.55
2018-02-07T23:05:32.830Z,101886.61
2018-02-07T23:08:00.572Z,101885.45
2018-02-07T23:10:28.370Z,101885.20
2018-02-07T23:12:56.121Z,101889.69
2018-02-07T23:15:23.951Z,101887.25
2018-02-07T23:17:51.694Z,101890.27
2018-02-07T23:20:19.477Z,101882.15
2018-02-07T23:22:47.231Z,101886.36
2018-02-07T23:25:15.150Z,101886.33
2018-02-07T23:27:42.900Z,101892.63
2018-02-07T23:30:10.743Z,101882.03
2018-02-07T23:32:38.476Z,101891.16
2018-02-07T23:35:06.261Z,101898.78
2018-02-07T23:37:34.110Z,101897.97
2018-02-07T23:40:01.888Z,101904.31
2018-02-07T23:42:29.677Z,101906.25
2018-02-07T23:44:57.474Z,101898.62
2018-02-07T23:47:25.231Z,101899.84
2018-02-07T23:49:53.091Z,101901.86
2018-02-07T23:52:20.837Z,101903.98
2018-02-07T23:54:48.681Z,101897.27
2018-02-07T23:57:16.428Z,101900.28
2018-02-07T23:59:44.217Z,101903.27
